map of BLL home
BLL - Airport
Location
City:  Billund, Denmark
ICAO:EKBI
IATA:BLL

Details
Type:Airport (Aerodrome, Airfield)
Latitude:5544'25"N (55.740322)
Longitude:909'06"E (9.151778)
Elevation:247 ft (75 m)
Variation:2.52E (WMM2015 magnetic declination)
0.15 annual change
Runways:1
Longest:10171 × 148 ft (3100 × 45 m), paved

Time
Time Zone:UTC+1 (DST+2)
Local Time:

Weather
METAR:EKBI 111250Z AUTO 01007KT 9999NDV NCD M01/M02 Q0988 R09/71//95
TAF:EKBI 111115Z 1112/1212 02010KT 9999 SCT020
BECMG 1118/1121 4000 -SN BKN010
TEMPO 1121/1207 1200 SN BKN004
BECMG 1207/1209 32012KT 9999 NSW SCT015

Related Locations
Nearby:
Farthest:CHT: 11569 mi / 18619 km
Waitangi [Tuuta], CIT, NZ

Find:

   beyond  
but within

Other Information
Maps:
NOTAMs:
Links:
Sources:

  
flag of Denmark   

Sectional Chart

Flight Planning
at skyvector.com

Satellite Image

Google Maps Satellite view

 

Copyright © 2004-2017 Karl L. Swartz. All rights reserved.
The Great Circle Mapper name and logo are trademarks of the Great Circle Mapper.
All other trademarks mentioned herein belong to their respective owners.
Please see credits for attibutions and further copyright information.

  Follow gcmap on Facebook Follow gcmap on Twitter Follow gcmap on Google+ GCmap on LinkedIn

hCard Microformat

Geo Microformat